Time;durP1;ratioP1;P1;durP2;ratioP2;P2;SDS_P1;SDS_P2;PMS_P1;PMS_P2;Temp;Humidity;BMP_temperature;BMP_pressure;BME280_temperature;BME280_humidity;BME280_pressure;Samples;Min_cycle;Max_cycle;Signal;HPM_P1;HPM_P2
2022/08/17 00:01:38;;;;;;;36.78;32.92;;;;;;;20.21;92.87;100777.69;5238081;28;20032;-67
2022/08/17 00:04:09;;;;;;;36.83;33.33;;;;;;;20.25;93.67;100774.47;5220435;28;20063;-67
2022/08/17 00:06:40;;;;;;;36.95;33.35;;;;;;;20.17;94.76;100772.66;5229954;28;20131;-67
2022/08/17 00:09:11;;;;;;;40.08;35.95;;;;;;;20.28;94.36;100765.94;5213843;28;20116;-67
2022/08/17 00:11:43;;;;;;;40.10;36.10;;;;;;;20.16;93.84;100760.13;5242564;28;20025;-67
2022/08/17 00:14:17;;;;;;;40.42;36.42;;;;;;;20.22;94.82;100763.16;5212784;28;20421;-67
2022/08/17 00:16:52;;;;;;;40.55;36.55;;;;;;;20.27;94.71;100763.41;5231103;28;20872;-67
2022/08/17 00:19:24;;;;;;;40.30;36.30;;;;;;;20.28;96.18;100752.41;5214386;28;20736;-67
2022/08/17 00:21:59;;;;;;;40.83;36.85;;;;;;;20.25;93.77;100744.66;5233963;28;20148;-66
2022/08/17 00:24:30;;;;;;;40.97;36.88;;;;;;;20.28;95.14;100738.84;5231479;28;20394;-67
2022/08/17 00:27:02;;;;;;;40.97;37.03;;;;;;;20.29;94.48;100731.59;5211186;28;20083;-67
2022/08/17 00:29:33;;;;;;;39.47;35.67;;;;;;;20.38;94.43;100741.31;5213860;28;20041;-67
2022/08/17 00:32:05;;;;;;;41.97;37.75;;;;;;;20.28;93.98;100744.28;5208590;28;20064;-67
2022/08/17 00:34:37;;;;;;;41.10;36.80;;;;;;;20.33;95.85;100739.16;5210567;28;20030;-67
2022/08/17 00:37:08;;;;;;;41.13;36.90;;;;;;;20.30;95.55;100742.22;5216663;28;20038;-67
2022/08/17 00:39:40;;;;;;;40.75;36.75;;;;;;;20.36;97.51;100732.53;5207721;28;20159;-67
2022/08/17 00:42:16;;;;;;;41.75;37.65;;;;;;;20.30;96.79;100733.25;5209850;28;20026;-67
2022/08/17 00:44:48;;;;;;;40.22;36.22;;;;;;;20.30;97.03;100728.69;5237403;28;20038;-67
2022/08/17 00:47:19;;;;;;;41.10;36.90;;;;;;;20.26;96.13;100732.78;5237085;27;20034;-67
2022/08/17 00:49:50;;;;;;;41.30;36.90;;;;;;;20.28;97.03;100727.19;5232560;28;20396;-67
2022/08/17 00:52:27;;;;;;;41.20;37.13;;;;;;;20.30;97.84;100733.25;5221798;28;20045;-67
2022/08/17 00:55:00;;;;;;;42.85;38.63;;;;;;;20.25;96.70;100741.09;5249194;28;20043;-67
2022/08/17 00:57:41;;;;;;;40.88;36.63;;;;;;;20.21;97.54;100729.78;5237019;28;20034;-67
2022/08/17 01:00:18;;;;;;;41.30;37.33;;;;;;;20.18;98.40;100732.88;5237935;28;20372;-67
2022/08/17 01:02:49;;;;;;;42.25;38.15;;;;;;;20.16;98.28;100729.50;5211773;28;20103;-67
2022/08/17 01:05:24;;;;;;;41.50;37.55;;;;;;;20.14;98.77;100729.69;5237814;28;20034;-67
2022/08/17 01:07:59;;;;;;;42.10;37.72;;;;;;;20.10;98.73;100731.06;5207745;28;20072;-67
2022/08/17 01:10:45;;;;;;;42.50;38.25;;;;;;;20.14;97.62;100729.69;5238265;28;20039;-67
2022/08/17 01:13:16;;;;;;;41.28;37.38;;;;;;;20.20;99.18;100725.41;5208751;27;20033;-67
2022/08/17 01:15:57;;;;;;;42.80;38.50;;;;;;;20.20;97.98;100725.41;5217735;28;20027;-67
2022/08/17 01:18:30;;;;;;;42.03;37.83;;;;;;;20.23;99.34;100718.75;5204388;28;20455;-67
2022/08/17 01:21:11;;;;;;;42.90;38.70;;;;;;;20.16;97.86;100722.22;5219329;28;20770;-68
2022/08/17 01:23:42;;;;;;;41.55;37.45;;;;;;;20.16;97.56;100719.50;5210888;28;20068;-67
2022/08/17 01:26:14;;;;;;;41.50;37.60;;;;;;;20.17;97.33;100715.78;5205738;28;20538;-67
2022/08/17 01:28:46;;;;;;;40.90;36.80;;;;;;;20.19;98.77;100704.72;5207492;28;20033;-68
2022/08/17 01:31:17;;;;;;;42.05;37.90;;;;;;;20.20;98.58;100705.59;5211756;28;20072;-67
2022/08/17 01:33:48;;;;;;;40.20;36.13;;;;;;;20.19;98.63;100704.72;5217494;28;20025;-68
2022/08/17 01:36:20;;;;;;;40.13;36.08;;;;;;;20.17;96.71;100696.81;5210508;28;20022;-68
2022/08/17 01:38:51;;;;;;;38.95;35.05;;;;;;;20.21;99.23;100699.13;5206671;28;20025;-67
2022/08/17 01:41:23;;;;;;;39.80;35.83;;;;;;;20.18;99.55;100698.47;5204961;28;20117;-67
2022/08/17 01:44:01;;;;;;;39.70;35.67;;;;;;;20.11;99.73;100700.22;5208141;28;20061;-67
2022/08/17 01:46:35;;;;;;;38.47;34.53;;;;;;;20.14;99.27;100704.47;5212609;28;20582;-67
2022/08/17 01:49:09;;;;;;;38.50;34.40;;;;;;;20.07;98.95;100690.78;5205940;28;20083;-67
2022/08/17 01:51:41;;;;;;;37.35;33.50;;;;;;;20.15;98.87;100693.44;5215758;28;20023;-67
2022/08/17 01:54:16;;;;;;;37.05;33.45;;;;;;;20.02;99.44;100701.38;5202402;28;20078;-67
2022/08/17 01:56:49;;;;;;;37.83;34.13;;;;;;;20.09;99.68;100694.16;5215513;28;20029;-67
2022/08/17 01:59:20;;;;;;;37.88;33.97;;;;;;;20.02;99.11;100693.22;5205874;28;20124;-67
2022/08/17 02:01:51;;;;;;;37.28;33.70;;;;;;;19.98;98.87;100691.88;5209020;28;20034;-67
2022/08/17 02:04:23;;;;;;;37.63;33.92;;;;;;;20.03;100.00;100691.34;5218093;28;20078;-67
2022/08/17 02:06:54;;;;;;;38.45;34.65;;;;;;;19.92;100.00;100692.63;5212973;28;20470;-67
2022/08/17 02:09:27;;;;;;;36.88;33.38;;;;;;;19.86;100.00;100687.94;5225065;28;20028;-67
2022/08/17 02:12:02;;;;;;;38.40;34.78;;;;;;;19.84;100.00;100690.84;5215433;28;20034;-67
2022/08/17 02:14:34;;;;;;;37.72;33.65;;;;;;;19.77;100.00;100685.31;5205401;28;20057;-67
2022/08/17 02:17:05;;;;;;;37.47;33.83;;;;;;;19.76;100.00;100683.63;5203204;28;20116;-67
2022/08/17 02:19:36;;;;;;;38.33;34.63;;;;;;;19.76;100.00;100688.19;5216564;28;20034;-67
2022/08/17 02:22:08;;;;;;;37.92;34.03;;;;;;;19.72;100.00;100687.72;5209043;28;20065;-67
2022/08/17 02:24:39;;;;;;;40.78;36.78;;;;;;;19.65;100.00;100692.13;5214111;28;20035;-68
2022/08/17 02:27:10;;;;;;;37.70;34.15;;;;;;;19.74;100.00;100691.09;5209970;28;20034;-67
2022/08/17 02:29:42;;;;;;;41.83;37.45;;;;;;;19.63;100.00;100686.06;5227503;28;20023;-67
2022/08/17 02:32:18;;;;;;;42.33;38.03;;;;;;;19.68;100.00;100691.78;5203190;28;20060;-67
2022/08/17 02:34:50;;;;;;;42.90;38.67;;;;;;;19.74;100.00;100682.13;5286966;28;20041;-67
2022/08/17 02:37:22;;;;;;;42.42;38.10;;;;;;;19.78;99.82;100673.44;5227948;28;20033;-67
2022/08/17 02:39:55;;;;;;;42.58;38.38;;;;;;;19.68;98.96;100678.25;5219593;28;20480;-67
2022/08/17 02:42:33;;;;;;;45.45;40.80;;;;;;;19.67;99.35;100678.41;5202469;28;20441;-67
2022/08/17 02:45:10;;;;;;;45.97;41.30;;;;;;;19.68;99.31;100672.84;5219954;28;20090;-68
2022/08/17 02:47:42;;;;;;;45.03;40.40;;;;;;;19.63;99.24;100675.22;5229280;28;20026;-67
2022/08/17 02:50:16;;;;;;;42.90;38.63;;;;;;;19.68;100.00;100674.72;5211560;28;20106;-67
2022/08/17 02:52:49;;;;;;;45.60;40.90;;;;;;;19.57;99.84;100673.25;5201391;28;20018;-67
2022/08/17 02:55:26;;;;;;;45.88;41.17;;;;;;;19.51;100.00;100674.81;5224233;28;20034;-67
2022/08/17 02:57:58;;;;;;;45.50;40.97;;;;;;;19.48;100.00;100674.34;5200860;28;20038;-67
2022/08/17 03:00:36;;;;;;;46.25;41.50;;;;;;;19.49;100.00;100667.91;5210833;28;20039;-67
2022/08/17 03:03:09;;;;;;;47.15;42.53;;;;;;;19.51;100.00;100666.69;5207818;28;20037;-67
2022/08/17 03:05:41;;;;;;;46.87;42.27;;;;;;;19.50;100.00;100661.47;5204847;28;20084;-67
2022/08/17 03:08:12;;;;;;;45.70;41.15;;;;;;;19.47;100.00;100659.97;5206233;28;20025;-67
2022/08/17 03:10:44;;;;;;;45.63;41.13;;;;;;;19.41;100.00;100658.00;5206558;28;20391;-67
2022/08/17 03:13:16;;;;;;;45.90;41.38;;;;;;;19.44;100.00;100651.38;5209928;28;20038;-67
2022/08/17 03:15:48;;;;;;;46.35;41.72;;;;;;;19.43;100.00;100650.53;5205202;28;20049;-67
2022/08/17 03:18:20;;;;;;;44.20;39.85;;;;;;;19.43;100.00;100655.94;5217395;28;20046;-68
2022/08/17 03:20:54;;;;;;;44.63;40.15;;;;;;;19.39;100.00;100651.91;5207380;28;20030;-67
2022/08/17 03:23:26;;;;;;;44.88;40.38;;;;;;;19.43;100.00;100657.81;5203091;28;20137;-68
2022/08/17 03:25:58;;;;;;;45.42;39.67;;;;;;;19.52;100.00;100654.88;5214658;28;20053;-67
2022/08/17 03:28:30;;;;;;;42.97;38.78;;;;;;;19.51;100.00;100655.03;5205204;28;20031;-68
2022/08/17 03:31:01;;;;;;;44.67;40.05;;;;;;;19.47;100.00;100661.84;5215308;28;20500;-68
2022/08/17 03:33:33;;;;;;;43.35;39.15;;;;;;;19.43;100.00;100663.22;5204523;28;20041;-67
2022/08/17 03:36:05;;;;;;;43.88;39.38;;;;;;;19.47;100.00;100669.97;5224923;28;20168;-67
2022/08/17 03:38:37;;;;;;;41.65;37.38;;;;;;;19.46;100.00;100666.38;5206055;28;20091;-67
2022/08/17 03:41:08;;;;;;;43.45;38.90;;;;;;;19.43;100.00;100665.94;5213187;28;20026;-67
2022/08/17 03:43:39;;;;;;;40.78;36.40;;;;;;;19.51;100.00;100663.16;5211885;28;20062;-67
2022/08/17 03:57:35;;;;;;;43.10;38.90;;;;;;;19.43;100.00;100677.59;5214560;28;20049;-67
2022/08/17 04:00:07;;;;;;;42.45;38.22;;;;;;;19.50;100.00;100683.09;5201883;28;20878;-67
2022/08/17 04:02:39;;;;;;;41.28;37.10;;;;;;;19.48;100.00;100680.56;5205627;28;20472;-68
2022/08/17 04:05:10;;;;;;;40.85;36.58;;;;;;;19.60;100.00;100686.44;5207961;28;20034;-67
2022/08/17 04:07:41;;;;;;;43.13;38.92;;;;;;;19.49;100.00;100693.09;5202660;28;20026;-67
2022/08/17 04:10:13;;;;;;;42.85;38.45;;;;;;;19.50;100.00;100705.63;5205491;28;20029;-67
2022/08/17 04:12:48;;;;;;;41.92;37.45;;;;;;;19.52;100.00;100724.38;5216507;28;20497;-67
2022/08/17 04:15:21;;;;;;;44.90;40.42;;;;;;;19.42;100.00;100731.88;5210484;28;20530;-67
2022/08/17 04:17:53;;;;;;;45.55;40.92;;;;;;;19.34;100.00;100732.78;5219027;28;20116;-68
2022/08/17 04:20:26;;;;;;;46.10;41.33;;;;;;;19.29;100.00;100727.03;5205972;28;20030;-67
2022/08/17 04:23:05;;;;;;;46.42;41.72;;;;;;;19.34;100.00;100709.25;5227598;28;20033;-67
2022/08/17 04:25:42;;;;;;;46.05;40.80;;;;;;;19.36;100.00;100722.59;5224715;28;20484;-67
2022/08/17 04:28:15;;;;;;;43.03;38.65;;;;;;;19.39;100.00;100728.50;5229391;28;20519;-67
2022/08/17 04:30:46;;;;;;;45.10;40.58;;;;;;;19.37;100.00;100732.44;5208311;28;20500;-67
2022/08/17 04:33:22;;;;;;;46.05;41.40;;;;;;;19.35;100.00;100743.41;5221288;28;20029;-67
2022/08/17 04:35:57;;;;;;;45.35;40.78;;;;;;;19.35;100.00;100748.81;5214078;28;20032;-67
2022/08/17 04:38:31;;;;;;;45.17;40.30;;;;;;;19.42;100.00;100756.22;5219942;28;20166;-67
2022/08/17 04:43:57;;;;;;;43.78;39.17;;;;;;;19.36;100.00;100764.03;5197830;28;20058;-67
2022/08/17 04:46:31;;;;;;;42.97;38.60;;;;;;;19.42;100.00;100767.06;5204201;28;20087;-67
2022/08/17 04:49:06;;;;;;;42.78;38.38;;;;;;;19.38;100.00;100772.81;5203118;28;20040;-67
2022/08/17 04:51:41;;;;;;;44.30;39.35;;;;;;;19.42;100.00;100775.16;5207383;28;20034;-67
2022/08/17 04:54:18;;;;;;;43.22;38.72;;;;;;;19.47;100.00;100775.50;5206678;28;20036;-67
2022/08/17 04:56:50;;;;;;;44.70;40.20;;;;;;;19.42;100.00;100759.78;5205867;28;20064;-67
2022/08/17 04:59:21;;;;;;;42.47;38.15;;;;;;;19.43;100.00;100771.47;5201964;28;20026;-67
2022/08/17 05:01:53;;;;;;;43.10;38.90;;;;;;;19.41;100.00;100747.28;5202500;28;20558;-67
2022/08/17 05:04:25;;;;;;;40.75;36.75;;;;;;;19.49;100.00;100757.22;5204178;28;20022;-68
2022/08/17 05:06:56;;;;;;;42.92;38.63;;;;;;;19.47;100.00;100760.09;5204403;28;20053;-67
2022/08/17 05:09:28;;;;;;;43.67;39.05;;;;;;;19.45;100.00;100755.88;5200154;28;20030;-67
2022/08/17 05:12:02;;;;;;;43.75;39.05;;;;;;;19.45;100.00;100745.91;5203370;28;20115;-67
2022/08/17 05:14:33;;;;;;;41.60;37.40;;;;;;;19.47;100.00;100741.16;5204113;28;20026;-68
2022/08/17 05:17:05;;;;;;;42.55;38.35;;;;;;;19.49;100.00;100747.22;5202753;28;20356;-67
2022/08/17 05:19:36;;;;;;;42.20;37.80;;;;;;;19.52;100.00;100746.88;5201402;28;20490;-67
2022/08/17 05:22:07;;;;;;;40.90;36.78;;;;;;;19.59;100.00;100749.69;5202541;28;20422;-67
2022/08/17 05:24:39;;;;;;;40.50;36.30;;;;;;;19.58;100.00;100748.03;5204272;28;20178;-67
2022/08/17 05:27:10;;;;;;;40.65;36.35;;;;;;;19.69;100.00;100750.28;5205085;28;20048;-67
2022/08/17 05:29:41;;;;;;;39.80;35.60;;;;;;;19.70;100.00;100748.44;5203558;28;20041;-67
2022/08/17 05:32:13;;;;;;;39.95;36.00;;;;;;;19.72;100.00;100747.28;5203180;28;20107;-67
2022/08/17 05:34:44;;;;;;;38.92;34.95;;;;;;;19.80;100.00;100745.53;5203938;28;20033;-67
2022/08/17 05:37:15;;;;;;;39.03;35.05;;;;;;;19.84;100.00;100744.16;5203159;28;20033;-67
2022/08/17 05:39:47;;;;;;;38.65;34.85;;;;;;;19.89;100.00;100739.03;5200737;28;20071;-68
2022/08/17 05:42:18;;;;;;;36.40;32.80;;;;;;;19.95;100.00;100735.59;5203258;28;20030;-67
2022/08/17 05:44:51;;;;;;;37.38;33.28;;;;;;;19.97;100.00;100741.69;5200979;28;20053;-67
2022/08/17 05:47:25;;;;;;;37.38;33.42;;;;;;;20.04;100.00;100748.06;5200879;28;20041;-68
2022/08/17 05:49:57;;;;;;;36.60;32.85;;;;;;;20.10;100.00;100744.63;5200473;28;20559;-68
2022/08/17 05:52:55;;;;;;;35.08;31.40;;;;;;;20.18;100.00;100739.13;5203417;28;20059;-67
2022/08/17 05:55:49;;;;;;;34.05;30.65;;;;;;;20.26;100.00;100742.78;5204231;28;20025;-67
2022/08/17 05:58:39;;;;;;;34.00;30.40;;;;;;;20.30;100.00;100750.34;5201801;28;20125;-67
2022/08/17 06:01:24;;;;;;;33.60;30.13;;;;;;;20.37;100.00;100743.19;5200940;28;20376;-67
2022/08/17 06:04:11;;;;;;;31.02;27.83;;;;;;;20.50;100.00;100755.25;5203545;28;20030;-67
2022/08/17 06:06:55;;;;;;;32.22;28.92;;;;;;;20.57;100.00;100761.63;5204081;28;20470;-68
2022/08/17 06:09:55;;;;;;;30.73;27.73;;;;;;;20.62;100.00;100752.97;5200217;28;20117;-67
2022/08/17 06:12:50;;;;;;;30.00;26.88;;;;;;;20.66;100.00;100751.56;5201864;28;20308;-67
2022/08/17 06:15:31;;;;;;;28.98;26.08;;;;;;;20.63;99.77;100757.34;5201679;28;20041;-67
2022/08/17 06:18:08;;;;;;;28.70;25.73;;;;;;;20.66;99.63;100759.72;5201807;28;20038;-68
2022/08/17 06:20:49;;;;;;;29.45;26.55;;;;;;;20.65;100.00;100756.16;5199770;28;20166;-68
2022/08/17 06:23:31;;;;;;;29.20;26.30;;;;;;;20.72;100.00;100769.81;5200181;28;20134;-67
2022/08/17 06:26:10;;;;;;;30.55;27.45;;;;;;;20.69;99.47;100781.88;5206370;28;20068;-68
2022/08/17 06:28:55;;;;;;;29.08;25.70;;;;;;;20.75;99.25;100781.13;5199039;28;20060;-68
2022/08/17 06:31:32;;;;;;;28.50;25.50;;;;;;;20.80;98.67;100782.44;5199220;28;20049;-68
2022/08/17 06:34:08;;;;;;;27.27;24.45;;;;;;;20.79;97.80;100783.44;5199295;28;20475;-68
2022/08/17 06:37:17;;;;;;;27.83;25.05;;;;;;;20.86;98.10;100790.66;5205237;28;20888;-68
2022/08/17 06:40:07;;;;;;;27.55;24.75;;;;;;;20.88;97.26;100790.47;5202613;28;20030;-68
2022/08/17 06:43:23;;;;;;;26.80;24.23;;;;;;;20.89;97.63;100786.75;5196508;28;20480;-68
2022/08/17 06:46:01;;;;;;;24.50;22.05;;;;;;;20.79;97.78;100789.72;5197827;28;20615;-68
2022/08/17 06:48:43;;;;;;;25.73;23.08;;;;;;;20.84;97.07;100789.16;5204038;28;20044;-68
2022/08/17 06:51:30;;;;;;;24.80;22.52;;;;;;;20.82;98.35;100797.47;5201531;28;20036;-68
2022/08/17 06:54:26;;;;;;;25.48;22.77;;;;;;;20.86;97.88;100803.38;5201668;28;20033;-68
2022/08/17 06:57:09;;;;;;;25.13;22.65;;;;;;;20.84;97.56;100808.97;5202961;28;20124;-68
2022/08/17 06:59:56;;;;;;;24.05;21.70;;;;;;;20.87;97.65;100807.78;5207465;28;20060;-68
2022/08/17 07:02:55;;;;;;;21.75;19.65;;;;;;;20.84;97.40;100817.13;5199581;28;20033;-68
2022/08/17 07:05:43;;;;;;;22.58;20.38;;;;;;;20.80;97.39;100804.97;5201620;28;20120;-68
2022/08/17 07:08:43;;;;;;;21.67;19.55;;;;;;;20.89;97.42;100809.28;5196634;28;20141;-68
2022/08/17 07:11:37;;;;;;;21.25;19.20;;;;;;;20.96;96.48;100809.38;5204943;28;20121;-68
2022/08/17 07:14:26;;;;;;;21.58;19.35;;;;;;;21.02;96.78;100811.34;5207116;28;20112;-67
2022/08/17 07:17:01;;;;;;;21.45;19.45;;;;;;;21.02;95.90;100832.22;5206618;28;20049;-69
2022/08/17 07:19:39;;;;;;;22.00;19.70;;;;;;;21.01;95.60;100823.22;5202441;28;20049;-69
2022/08/17 07:22:37;;;;;;;21.67;19.45;;;;;;;21.06;95.77;100825.38;5204539;28;20034;-69
2022/08/17 07:25:11;;;;;;;22.20;19.83;;;;;;;21.03;95.25;100825.75;5197675;28;20116;-69
2022/08/17 07:27:49;;;;;;;24.38;19.50;;;;;;;21.04;95.93;100822.00;5205830;28;20025;-69
2022/08/17 07:30:27;;;;;;;20.92;18.95;;;;;;;21.06;95.84;100826.22;5202353;28;20037;-69
2022/08/17 07:33:16;;;;;;;20.88;18.65;;;;;;;21.14;95.57;100826.09;5204598;28;20132;-69
2022/08/17 07:35:48;;;;;;;20.58;18.38;;;;;;;20.99;95.52;100827.97;5205917;28;20053;-69
2022/08/17 07:38:28;;;;;;;22.48;19.40;;;;;;;21.01;95.96;100831.34;5204396;28;20074;-69
2022/08/17 07:41:09;;;;;;;21.10;18.98;;;;;;;21.05;95.51;100834.53;5200001;28;20041;-69
2022/08/17 07:43:40;;;;;;;20.65;18.55;;;;;;;21.05;95.55;100843.50;5202006;28;20130;-70
2022/08/17 07:49:14;;;;;;;21.95;18.83;;;;;;;21.10;95.20;100848.41;5198880;28;20293;-70
2022/08/17 07:51:45;;;;;;;22.00;19.27;;;;;;;21.23;94.63;100845.00;5213707;28;20026;-69
2022/08/17 07:54:22;;;;;;;21.88;19.77;;;;;;;21.28;94.46;100846.13;5206005;28;20280;-69
2022/08/17 07:56:58;;;;;;;20.38;18.27;;;;;;;21.30;94.50;100848.66;5203762;28;20120;-68
2022/08/17 07:59:35;;;;;;;21.10;18.98;;;;;;;21.29;93.67;100839.69;5210741;28;20106;-67
2022/08/17 08:02:37;;;;;;;20.67;18.23;;;;;;;21.49;93.24;100844.56;5202438;28;20042;-70
2022/08/17 08:05:28;;;;;;;21.23;19.13;;;;;;;21.47;93.07;100838.47;5205657;28;20073;-69
2022/08/17 08:08:04;;;;;;;20.83;18.67;;;;;;;21.53;92.29;100849.44;5205928;28;20485;-67
2022/08/17 08:10:40;;;;;;;21.73;19.42;;;;;;;21.61;91.57;100851.22;5204031;28;20030;-67
2022/08/17 08:13:20;;;;;;;21.33;19.27;;;;;;;21.62;91.83;100844.72;5205810;28;20029;-67
2022/08/17 08:15:54;;;;;;;20.50;18.60;;;;;;;21.64;91.25;100847.25;5207466;28;20041;-68
2022/08/17 08:18:31;;;;;;;22.35;20.17;;;;;;;21.63;91.68;100843.72;5211149;28;20038;-69
2022/08/17 08:21:08;;;;;;;20.45;18.45;;;;;;;21.75;91.33;100846.78;5208598;28;20045;-68
2022/08/17 08:24:21;;;;;;;21.55;19.45;;;;;;;21.90;90.85;100849.44;5205750;28;20610;-68
2022/08/17 08:27:20;;;;;;;21.50;19.42;;;;;;;21.85;90.43;100850.00;5224966;28;20045;-69
2022/08/17 08:30:04;;;;;;;22.75;20.48;;;;;;;21.86;90.89;100831.81;5198007;28;20044;-68
2022/08/17 08:33:16;;;;;;;22.27;20.05;;;;;;;21.98;89.75;100834.91;5208312;28;20022;-69
2022/08/17 08:36:16;;;;;;;26.05;21.27;;;;;;;21.91;89.34;100838.38;5211171;28;20057;-69
2022/08/17 08:39:02;;;;;;;22.55;20.27;;;;;;;21.80;90.62;100824.44;5209160;28;20022;-69
2022/08/17 08:41:54;;;;;;;21.55;19.55;;;;;;;21.99;90.30;100831.13;5201461;28;20034;-69
2022/08/17 08:44:37;;;;;;;23.33;20.95;;;;;;;21.81;89.48;100843.28;5207015;28;20052;-69
2022/08/17 08:47:20;;;;;;;22.07;19.77;;;;;;;22.06;90.25;100848.38;5205288;28;20428;-68
2022/08/17 08:49:57;;;;;;;22.40;20.13;;;;;;;22.22;88.92;100863.56;5207844;28;20044;-68
2022/08/17 08:52:42;;;;;;;23.42;20.92;;;;;;;22.27;88.20;100878.28;5208022;28;20022;-68
2022/08/17 08:55:51;;;;;;;23.60;21.02;;;;;;;22.47;88.03;100881.19;5204220;28;20037;-68
2022/08/17 08:58:42;;;;;;;22.98;20.75;;;;;;;22.54;87.03;100880.44;5207923;28;20478;-68
2022/08/17 09:01:52;;;;;;;24.15;21.73;;;;;;;22.65;85.67;100869.88;5199805;28;20034;-68
2022/08/17 09:04:48;;;;;;;23.85;21.42;;;;;;;22.65;85.41;100869.88;5208378;28;20415;-68
2022/08/17 09:07:45;;;;;;;23.65;21.27;;;;;;;22.71;85.46;100869.06;5202527;28;20033;-68
2022/08/17 09:10:24;;;;;;;24.60;22.00;;;;;;;22.68;85.29;100866.72;5204548;28;20532;-68
2022/08/17 09:13:15;;;;;;;24.42;21.90;;;;;;;22.63;85.50;100877.38;5207789;28;20152;-68
2022/08/17 09:15:56;;;;;;;23.15;20.90;;;;;;;22.51;86.62;100870.78;5209287;28;20033;-68
2022/08/17 09:18:32;;;;;;;23.83;21.52;;;;;;;22.45;86.93;100875.09;5207987;28;20026;-69
2022/08/17 09:21:12;;;;;;;25.60;22.98;;;;;;;22.42;86.69;100880.97;5208211;28;20034;-68
2022/08/17 09:23:58;;;;;;;23.52;21.33;;;;;;;22.31;87.53;100876.03;5208396;28;20041;-68
2022/08/17 09:26:38;;;;;;;23.13;20.70;;;;;;;22.38;87.86;100882.38;5201878;28;20029;-68
2022/08/17 09:29:13;;;;;;;22.50;20.20;;;;;;;22.44;87.42;100883.50;5206281;28;20026;-68
2022/08/17 09:31:56;;;;;;;21.60;19.42;;;;;;;22.44;88.36;100889.75;5206317;28;20037;-68
2022/08/17 09:34:52;;;;;;;21.17;19.00;;;;;;;22.42;88.79;100899.16;5206157;28;20022;-68
2022/08/17 09:37:34;;;;;;;21.85;19.50;;;;;;;22.26;90.73;100905.66;5210120;28;20034;-68
2022/08/17 09:40:16;;;;;;;23.58;21.10;;;;;;;22.40;95.87;100921.09;5199224;28;20036;-68
2022/08/17 09:42:53;;;;;;;22.42;19.60;;;;;;;22.31;96.42;100933.94;5203019;28;20137;-68
2022/08/17 09:45:50;;;;;;;25.15;22.67;;;;;;;22.42;97.70;100943.50;5202802;28;20122;-68
2022/08/17 09:48:28;;;;;;;24.20;21.58;;;;;;;22.28;97.96;100958.81;5207226;28;20479;-67
2022/08/17 09:51:06;;;;;;;25.10;22.63;;;;;;;21.96;99.77;100965.50;5204983;28;20126;-68
2022/08/17 09:53:38;;;;;;;25.65;23.13;;;;;;;21.74;100.00;100959.97;5198907;28;20683;-68
2022/08/17 09:56:34;;;;;;;27.02;24.23;;;;;;;21.59;100.00;100970.00;5208331;28;20090;-68
2022/08/17 09:59:31;;;;;;;29.52;26.48;;;;;;;21.43;100.00;100956.59;5201655;28;20034;-68
2022/08/17 10:02:20;;;;;;;29.92;26.75;;;;;;;21.24;100.00;100941.69;5201387;28;20088;-67
2022/08/17 10:05:11;;;;;;;30.35;27.15;;;;;;;20.90;100.00;100935.72;5204704;28;20661;-66
2022/08/17 10:08:11;;;;;;;31.65;27.88;;;;;;;20.67;100.00;100927.63;5212658;28;20030;-66
2022/08/17 10:11:08;;;;;;;31.40;28.13;;;;;;;20.54;100.00;100941.75;5204265;28;20373;-66
2022/08/17 10:13:52;;;;;;;34.00;30.33;;;;;;;20.60;100.00;100942.91;5217072;28;20039;-66
2022/08/17 10:16:33;;;;;;;36.17;32.45;;;;;;;20.63;100.00;100939.00;5206968;28;20090;-66
2022/08/17 10:19:13;;;;;;;34.42;30.88;;;;;;;20.43;100.00;100928.59;5206061;28;20038;-66
2022/08/17 10:27:47;;;;;;;38.42;33.75;;;;;;;19.99;100.00;100940.03;5207266;28;20503;-66
2022/08/17 10:30:23;;;;;;;41.53;36.03;;;;;;;20.04;100.00;100932.25;5204637;28;20061;-67
2022/08/17 10:33:14;;;;;;;39.47;35.30;;;;;;;19.98;100.00;100935.63;5203141;28;20064;-67
2022/08/17 10:36:01;;;;;;;41.17;36.58;;;;;;;19.98;100.00;100933.78;5201307;28;20132;-67
2022/08/17 10:38:36;;;;;;;47.28;42.22;;;;;;;19.99;100.00;100934.63;5200867;28;20116;-67
2022/08/17 10:41:39;;;;;;;46.30;39.10;;;;;;;19.86;100.00;100927.06;5213808;28;20042;-68
2022/08/17 10:44:34;;;;;;;48.33;42.28;;;;;;;19.89;100.00;100923.19;5206523;28;20050;-67
2022/08/17 10:47:10;;;;;;;55.05;44.60;;;;;;;19.70;100.00;100913.59;5216647;28;20371;-67
2022/08/17 10:49:52;;;;;;;51.22;42.78;;;;;;;19.65;100.00;100913.25;5207291;28;20125;-67
2022/08/17 10:52:26;;;;;;;55.05;44.40;;;;;;;19.67;100.00;100898.50;5207531;28;20834;-68
2022/08/17 10:55:11;;;;;;;58.50;47.80;;;;;;;19.66;100.00;100891.44;5207999;28;20033;-67
2022/08/17 10:57:45;;;;;;;52.58;45.65;;;;;;;19.55;100.00;100884.53;5207748;28;20113;-68
2022/08/17 11:00:19;;;;;;;59.95;45.97;;;;;;;19.64;100.00;100879.94;5202939;28;20109;-67
2022/08/17 11:02:56;;;;;;;54.05;45.17;;;;;;;19.47;100.00;100883.72;5215791;28;20129;-70
2022/08/17 11:06:03;;;;;;;50.08;43.15;;;;;;;19.41;100.00;100887.97;5209947;28;20036;-67
2022/08/17 11:08:56;;;;;;;52.00;44.22;;;;;;;19.38;100.00;100893.72;5205377;28;20120;-67
2022/08/17 11:11:56;;;;;;;50.65;43.83;;;;;;;19.33;100.00;100893.41;5208179;28;20045;-67
2022/08/17 11:15:01;;;;;;;53.88;45.70;;;;;;;19.34;100.00;100893.22;5203604;28;20045;-67
2022/08/17 11:18:00;;;;;;;49.30;43.72;;;;;;;19.16;100.00;100888.03;5206022;28;20014;-66
2022/08/17 11:20:43;;;;;;;56.35;44.92;;;;;;;19.12;100.00;100897.53;5206070;28;21920;-68
2022/08/17 11:23:35;;;;;;;51.23;43.67;;;;;;;19.07;100.00;100907.16;5196985;28;20033;-66
2022/08/17 11:26:25;;;;;;;51.40;44.72;;;;;;;19.06;100.00;100919.84;5204067;28;20033;-66
2022/08/17 11:29:00;;;;;;;55.80;46.35;;;;;;;19.10;100.00;100909.50;5208253;28;20095;-66
2022/08/17 11:31:42;;;;;;;52.15;44.22;;;;;;;19.04;100.00;100927.25;5207717;28;20034;-66
2022/08/17 11:34:20;;;;;;;52.53;44.85;;;;;;;19.15;100.00;100948.56;5207499;28;20409;-66
2022/08/17 11:37:01;;;;;;;58.92;47.53;;;;;;;19.33;100.00;100944.78;5209528;28;20034;-67
2022/08/17 11:40:09;;;;;;;64.15;50.72;;;;;;;19.37;100.00;100949.72;5206108;28;20460;-67
2022/08/17 11:42:58;;;;;;;58.25;47.70;;;;;;;19.36;100.00;100948.00;5204962;28;20068;-67
2022/08/17 11:45:54;;;;;;;63.08;49.67;;;;;;;19.57;100.00;100958.28;5207288;28;20030;-67
2022/08/17 11:51:34;;;;;;;60.00;47.70;;;;;;;19.49;100.00;100958.31;5210900;28;20041;-68
2022/08/17 11:54:05;;;;;;;48.65;42.85;;;;;;;19.39;100.00;100955.78;5210126;28;20434;-68
2022/08/17 11:56:49;;;;;;;52.20;44.47;;;;;;;19.42;100.00;100970.81;5209147;28;20026;-68
2022/08/17 11:59:32;;;;;;;57.67;46.27;;;;;;;19.48;100.00;100969.28;5210661;28;20116;-67
2022/08/17 12:02:34;;;;;;;62.37;49.47;;;;;;;19.59;100.00;100986.00;5208690;28;20034;-67
2022/08/17 12:05:19;;;;;;;64.30;50.55;;;;;;;19.81;100.00;100980.06;5209247;28;20065;-67
2022/08/17 12:08:04;;;;;;;59.72;48.53;;;;;;;19.66;100.00;100979.94;5209749;28;20033;-67
2022/08/17 12:11:17;;;;;;;58.85;46.40;;;;;;;19.68;100.00;100978.72;5211273;28;20076;-68
2022/08/17 12:13:54;;;;;;;67.97;51.05;;;;;;;19.87;100.00;100982.09;5199538;28;20091;-68
2022/08/17 12:16:26;;;;;;;65.85;50.45;;;;;;;19.89;100.00;100980.03;5210488;28;20482;-68
2022/08/17 12:19:02;;;;;;;76.88;53.78;;;;;;;19.95;100.00;100990.16;5207533;28;20026;-68
2022/08/17 12:21:47;;;;;;;73.70;55.53;;;;;;;20.01;100.00;100992.16;5208828;28;20037;-68
2022/08/17 12:24:38;;;;;;;72.22;54.42;;;;;;;19.97;100.00;100988.97;5211875;28;20517;-68
2022/08/17 12:27:10;;;;;;;76.25;54.92;;;;;;;20.06;100.00;100997.91;5206312;28;20065;-68